createdAt,value
2018-06-21T00:01:26.904Z,98500.11
2018-06-21T00:03:39.317Z,98499.45
2018-06-21T00:05:51.854Z,98492.19
2018-06-21T00:08:04.294Z,98492.36
2018-06-21T00:10:16.650Z,98485.52
2018-06-21T00:12:29.079Z,98484.48
2018-06-21T00:14:41.431Z,98480.03
2018-06-21T00:16:53.823Z,98481.89
2018-06-21T00:19:06.440Z,98478.63
2018-06-21T00:21:18.786Z,98478.68
2018-06-21T00:23:31.244Z,98478.97
2018-06-21T00:25:43.536Z,98477.27
2018-06-21T00:27:56.062Z,98478.51
2018-06-21T00:30:08.530Z,98476.85
2018-06-21T00:32:21.347Z,98474.17
2018-06-21T00:34:33.733Z,98469.05
2018-06-21T00:36:46.109Z,98467.24
2018-06-21T00:38:58.478Z,98468.32
2018-06-21T00:41:10.990Z,98467.05
2018-06-21T00:43:23.505Z,98464.46
2018-06-21T00:45:35.974Z,98462.52
2018-06-21T00:47:48.350Z,98464.75
2018-06-21T00:50:00.786Z,98465.77
2018-06-21T00:52:13.139Z,98460.23
2018-06-21T00:54:25.766Z,98465.43
2018-06-21T00:56:38.185Z,98462.59
2018-06-21T00:58:50.721Z,98464.24
2018-06-21T01:01:03.306Z,98462.09
2018-06-21T01:03:15.660Z,98463.58
2018-06-21T01:05:28.066Z,98464.56
2018-06-21T01:07:40.674Z,98465.17
2018-06-21T01:09:53.135Z,98462.20
2018-06-21T01:12:05.596Z,98460.23
2018-06-21T01:14:17.914Z,98456.78
2018-06-21T01:16:30.293Z,98458.88
2018-06-21T01:18:42.618Z,98458.33
2018-06-21T01:20:55.058Z,98458.33
2018-06-21T01:23:07.479Z,98454.53
2018-06-21T01:25:19.816Z,98452.84
2018-06-21T01:27:32.193Z,98456.80
2018-06-21T01:29:44.593Z,98448.84
2018-06-21T01:31:56.930Z,98439.45
2018-06-21T01:34:09.331Z,98449.29
2018-06-21T01:36:21.887Z,98445.13
2018-06-21T01:38:34.277Z,98441.17
2018-06-21T01:40:46.624Z,98441.89
2018-06-21T01:42:58.943Z,98441.30
2018-06-21T01:45:11.398Z,98446.52
2018-06-21T01:47:23.702Z,98438.96
2018-06-21T01:49:36.062Z,98434.19
2018-06-21T01:51:48.466Z,98432.66
2018-06-21T01:54:00.836Z,98431.44
2018-06-21T01:56:13.146Z,98431.34
2018-06-21T01:58:25.652Z,98431.63
2018-06-21T02:00:38.038Z,98429.22
2018-06-21T02:02:50.463Z,98434.14
2018-06-21T02:05:02.946Z,98431.14
2018-06-21T02:07:15.331Z,98429.77
2018-06-21T02:09:27.659Z,98421.53
2018-06-21T02:11:40.173Z,98422.08
2018-06-21T02:13:52.551Z,98419.84
2018-06-21T02:16:05.218Z,98419.90
2018-06-21T02:18:17.613Z,98422.36
2018-06-21T02:20:30.043Z,98412.77
2018-06-21T02:22:42.525Z,98417.76
2018-06-21T02:24:54.908Z,98416.31
2018-06-21T02:27:07.418Z,98414.02
2018-06-21T02:29:19.808Z,98409.67
2018-06-21T02:31:32.240Z,98403.86
2018-06-21T02:33:44.665Z,98404.32
2018-06-21T02:35:57.074Z,98406.67
2018-06-21T02:38:09.445Z,98396.30
2018-06-21T02:40:23.272Z,98392.47
2018-06-21T02:42:35.626Z,98399.55
2018-06-21T02:44:48.113Z,98396.30
2018-06-21T02:47:00.558Z,98392.84
2018-06-21T02:49:13.057Z,98396.91
2018-06-21T02:51:25.490Z,98395.41
2018-06-21T02:53:37.820Z,98392.41
2018-06-21T02:55:50.184Z,98388.28
2018-06-21T02:58:02.815Z,98388.62
2018-06-21T03:00:15.279Z,98389.60
2018-06-21T03:02:27.670Z,98388.95
2018-06-21T03:04:39.990Z,98389.60
2018-06-21T03:06:52.351Z,98389.88
2018-06-21T03:09:06.516Z,98388.84
2018-06-21T03:11:18.853Z,98388.84
2018-06-21T03:13:31.208Z,98386.52
2018-06-21T03:15:43.613Z,98387.83
2018-06-21T03:17:56.010Z,98382.30
2018-06-21T03:20:08.355Z,98380.20
2018-06-21T03:22:20.950Z,98383.69
2018-06-21T03:24:33.350Z,98385.45
2018-06-21T03:26:45.722Z,98382.66
2018-06-21T03:28:58.090Z,98380.48
2018-06-21T03:31:10.425Z,98386.72
2018-06-21T03:33:22.894Z,98385.84
2018-06-21T03:35:35.302Z,98383.95
2018-06-21T03:37:47.698Z,98387.95
2018-06-21T03:40:00.406Z,98393.59
2018-06-21T03:42:12.760Z,98381.93
2018-06-21T03:44:25.134Z,98389.48
2018-06-21T03:46:37.571Z,98386.22
2018-06-21T03:48:49.953Z,98388.08
2018-06-21T03:51:02.382Z,98387.63
2018-06-21T03:53:14.891Z,98391.63
2018-06-21T03:55:27.258Z,98398.21
2018-06-21T03:57:39.763Z,98392.52
2018-06-21T03:59:52.129Z,98398.82
2018-06-21T04:02:04.788Z,98394.23
2018-06-21T04:04:17.107Z,98400.20
2018-06-21T04:06:29.527Z,98406.02
2018-06-21T04:08:41.878Z,98408.03
2018-06-21T04:10:54.259Z,98408.37
2018-06-21T04:13:06.685Z,98405.52
2018-06-21T04:15:19.035Z,98409.96
2018-06-21T04:17:31.601Z,98403.87
2018-06-21T04:19:43.913Z,98409.69
2018-06-21T04:21:56.261Z,98405.73
2018-06-21T04:24:08.653Z,98406.13
2018-06-21T04:26:21.368Z,98412.16
2018-06-21T04:28:33.853Z,98408.84
2018-06-21T04:30:46.255Z,98413.45
2018-06-21T04:32:58.618Z,98410.79
2018-06-21T04:35:11.138Z,98408.67
2018-06-21T04:37:23.601Z,98415.72
2018-06-21T04:39:35.972Z,98407.13
2018-06-21T04:41:48.347Z,98403.59
2018-06-21T04:44:00.984Z,98405.08
2018-06-21T04:46:13.375Z,98398.91
2018-06-21T04:48:25.778Z,98401.85
2018-06-21T04:50:38.162Z,98400.67
2018-06-21T04:52:50.509Z,98392.87
2018-06-21T04:55:02.946Z,98393.49
2018-06-21T04:57:15.390Z,98395.20
2018-06-21T04:59:27.786Z,98394.64
2018-06-21T05:01:40.210Z,98390.43
2018-06-21T05:03:52.557Z,98394.02
2018-06-21T05:06:05.099Z,98388.78
2018-06-21T05:08:17.489Z,98388.38
2018-06-21T05:10:29.868Z,98389.27
2018-06-21T05:12:42.322Z,98383.91
2018-06-21T05:14:54.706Z,98388.41
2018-06-21T05:17:07.326Z,98391.63
2018-06-21T05:19:19.858Z,98385.84
2018-06-21T05:21:32.646Z,98389.05
2018-06-21T05:23:45.313Z,98388.33
2018-06-21T05:25:57.717Z,98394.03
2018-06-21T05:28:10.106Z,98392.41
2018-06-21T05:30:22.466Z,98389.95
2018-06-21T05:32:34.818Z,98390.45
2018-06-21T05:34:47.255Z,98393.11
2018-06-21T05:36:59.694Z,98386.52
2018-06-21T05:39:12.502Z,98385.70
2018-06-21T05:41:24.883Z,98391.36
2018-06-21T05:43:37.330Z,98395.34
2018-06-21T05:45:49.745Z,98404.85
2018-06-21T05:48:02.974Z,98402.53
2018-06-21T05:50:15.367Z,98405.02
2018-06-21T05:52:27.721Z,98406.19
2018-06-21T05:54:40.130Z,98396.07
2018-06-21T05:56:52.508Z,98396.23
2018-06-21T05:59:04.847Z,98398.55
2018-06-21T06:01:17.271Z,98390.75
2018-06-21T06:03:29.872Z,98388.09
2018-06-21T06:05:42.230Z,98380.15
2018-06-21T06:07:54.638Z,98380.11
2018-06-21T06:10:07.081Z,98382.23
2018-06-21T06:12:19.487Z,98384.87
2018-06-21T06:14:31.874Z,98386.20
2018-06-21T06:16:44.258Z,98389.15
2018-06-21T06:18:56.592Z,98386.66
2018-06-21T06:21:09.006Z,98389.12
2018-06-21T06:23:21.422Z,98382.32
2018-06-21T06:25:33.923Z,98382.94
2018-06-21T06:27:46.416Z,98386.56
2018-06-21T06:29:58.897Z,98384.07
2018-06-21T06:32:11.270Z,98389.16
2018-06-21T06:34:23.663Z,98378.41
2018-06-21T06:36:36.170Z,98378.25
2018-06-21T06:38:48.698Z,98379.09
2018-06-21T06:41:01.088Z,98371.78
2018-06-21T06:43:13.499Z,98374.41
2018-06-21T06:45:25.984Z,98374.38
2018-06-21T06:47:38.315Z,98370.16
2018-06-21T06:49:50.719Z,98372.20
2018-06-21T06:52:03.213Z,98366.63
2018-06-21T06:54:15.686Z,98368.11
2018-06-21T06:56:28.026Z,98369.27
2018-06-21T06:58:40.386Z,98365.95
2018-06-21T07:00:52.990Z,98364.07
2018-06-21T07:03:05.387Z,98357.80
2018-06-21T07:05:17.814Z,98359.41
2018-06-21T07:07:30.359Z,98351.91
2018-06-21T07:09:42.709Z,98356.42
2018-06-21T07:11:55.085Z,98350.36
2018-06-21T07:14:07.588Z,98353.98
2018-06-21T07:16:19.947Z,98349.92
2018-06-21T07:18:32.315Z,98356.59
2018-06-21T07:20:44.681Z,98352.45
2018-06-21T07:22:57.170Z,98349.20
2018-06-21T07:25:09.508Z,98353.73
2018-06-21T07:27:21.976Z,98348.47
2018-06-21T07:29:34.453Z,98343.66
2018-06-21T07:31:46.867Z,98346.23
2018-06-21T07:33:59.318Z,98339.31
2018-06-21T07:36:11.730Z,98341.41
2018-06-21T07:38:24.248Z,98339.28
2018-06-21T07:40:36.609Z,98338.15
2018-06-21T07:42:48.942Z,98341.14
2018-06-21T07:45:01.442Z,98331.31
2018-06-21T07:47:13.860Z,98343.55
2018-06-21T07:49:26.310Z,98335.00
2018-06-21T07:51:38.686Z,98334.59
2018-06-21T07:53:51.135Z,98341.38
2018-06-21T07:56:03.795Z,98338.16
2018-06-21T07:58:16.243Z,98337.97
2018-06-21T08:00:28.983Z,98331.21
2018-06-21T08:02:41.555Z,98340.25
2018-06-21T08:04:53.965Z,98332.63
2018-06-21T08:07:06.359Z,98334.14
2018-06-21T08:09:18.964Z,98338.02
2018-06-21T08:11:31.368Z,98330.92
2018-06-21T08:13:43.816Z,98332.51
2018-06-21T08:15:56.166Z,98332.53
2018-06-21T08:18:08.617Z,98331.61
2018-06-21T08:20:21.147Z,98336.49
2018-06-21T08:22:33.527Z,98340.42
2018-06-21T08:24:45.941Z,98340.73
2018-06-21T08:26:58.348Z,98335.20
2018-06-21T08:29:11.002Z,98346.59
2018-06-21T08:31:23.392Z,98343.11
2018-06-21T08:33:35.764Z,98348.34
2018-06-21T08:35:48.160Z,98337.17
2018-06-21T08:38:00.765Z,98350.82
2018-06-21T08:40:13.208Z,98357.21
2018-06-21T08:42:25.572Z,98360.73
2018-06-21T08:44:37.954Z,98361.77
2018-06-21T08:46:50.377Z,98362.97
2018-06-21T08:49:03.644Z,98371.20
2018-06-21T08:51:16.746Z,98364.92
2018-06-21T08:53:29.591Z,98372.97
2018-06-21T08:55:42.835Z,98367.11
2018-06-21T08:57:55.213Z,98376.38
2018-06-21T09:00:07.750Z,98379.33
2018-06-21T09:02:20.197Z,98379.30
2018-06-21T09:04:33.485Z,98376.52
2018-06-21T09:06:45.895Z,98381.88
2018-06-21T09:08:58.946Z,98379.84
2018-06-21T09:11:11.771Z,98389.03
2018-06-21T09:13:30.990Z,98392.97
2018-06-21T09:15:44.146Z,98387.23
2018-06-21T09:17:57.443Z,98379.45
2018-06-21T09:20:09.866Z,98376.95
2018-06-21T09:22:22.245Z,98382.21
2018-06-21T09:24:34.703Z,98378.02
2018-06-21T09:26:47.062Z,98378.84
2018-06-21T09:29:00.091Z,98387.57
2018-06-21T09:31:12.498Z,98386.42
2018-06-21T09:33:25.075Z,98397.98
2018-06-21T09:35:37.462Z,98391.06
2018-06-21T09:37:55.667Z,98397.25
2018-06-21T09:40:13.628Z,98397.74
2018-06-21T09:42:31.569Z,98399.75
2018-06-21T09:44:50.642Z,98404.66
2018-06-21T09:47:09.222Z,98402.64
2018-06-21T09:49:27.217Z,98409.39
2018-06-21T09:51:39.643Z,98412.06
2018-06-21T09:53:52.152Z,98418.86
2018-06-21T09:56:06.358Z,98419.59
2018-06-21T09:58:19.108Z,98421.56
2018-06-21T10:00:37.185Z,98436.07
2018-06-21T10:02:49.554Z,98426.98
2018-06-21T10:05:01.951Z,98434.05
2018-06-21T10:07:14.615Z,98426.06
2018-06-21T10:09:27.038Z,98424.33
2018-06-21T10:11:40.330Z,98436.25
2018-06-21T10:13:52.770Z,98426.81
2018-06-21T10:16:05.458Z,98428.83
2018-06-21T10:18:18.842Z,98434.08
2018-06-21T10:20:31.943Z,98436.47
2018-06-21T10:22:45.011Z,98437.28
2018-06-21T10:24:58.310Z,98440.47
2018-06-21T10:27:11.198Z,98433.75
2018-06-21T10:29:23.651Z,98432.27
2018-06-21T10:31:36.227Z,98431.27
2018-06-21T10:33:48.632Z,98425.33
2018-06-21T10:36:01.591Z,98425.33
2018-06-21T10:38:14.786Z,98418.55
2018-06-21T10:40:27.860Z,98409.25
2018-06-21T10:42:41.325Z,98410.46
2018-06-21T10:44:54.365Z,98412.95
2018-06-21T10:47:07.006Z,98410.52
2018-06-21T10:49:20.193Z,98407.23
2018-06-21T10:51:33.606Z,98408.45
2018-06-21T10:53:46.719Z,98410.12
2018-06-21T10:55:59.110Z,98409.30
2018-06-21T10:58:11.516Z,98405.28
2018-06-21T11:00:24.548Z,98407.23
2018-06-21T11:02:37.815Z,98403.62
2018-06-21T11:04:50.400Z,98408.27
2018-06-21T11:07:02.967Z,98398.38
2018-06-21T11:09:16.175Z,98396.03
2018-06-21T11:11:28.618Z,98403.54
2018-06-21T11:13:41.045Z,98399.06
2018-06-21T11:15:53.561Z,98405.63
2018-06-21T11:18:07.070Z,98401.37
2018-06-21T11:20:19.471Z,98400.77
2018-06-21T11:22:31.934Z,98403.52
2018-06-21T11:24:44.362Z,98401.34
2018-06-21T11:26:56.843Z,98401.37
2018-06-21T11:29:09.900Z,98399.87
2018-06-21T11:31:23.601Z,98398.64
2018-06-21T11:33:36.140Z,98398.25
2018-06-21T11:35:49.279Z,98391.80
2018-06-21T11:38:02.280Z,98396.33
2018-06-21T11:40:14.745Z,98384.27
2018-06-21T11:42:27.165Z,98382.70
2018-06-21T11:44:39.561Z,98377.52
2018-06-21T11:46:51.996Z,98386.34
2018-06-21T11:49:05.118Z,98387.76
2018-06-21T11:51:18.357Z,98382.19
2018-06-21T11:53:30.759Z,98388.48
2018-06-21T11:55:43.149Z,98378.47
2018-06-21T11:57:55.549Z,98376.54
2018-06-21T12:00:08.350Z,98381.20
2018-06-21T12:02:20.961Z,98387.69
2018-06-21T12:04:33.428Z,98380.99
2018-06-21T12:06:45.866Z,98383.37
2018-06-21T12:09:00.464Z,98376.16
2018-06-21T12:11:13.000Z,98375.86
2018-06-21T12:13:25.411Z,98363.81
2018-06-21T12:15:38.901Z,98371.93
2018-06-21T12:17:53.003Z,98374.43
2018-06-21T12:20:05.510Z,98376.34
2018-06-21T12:22:18.746Z,98375.20
2018-06-21T12:24:31.217Z,98370.40
2018-06-21T12:26:43.748Z,98366.44
2018-06-21T12:28:56.738Z,98363.23
2018-06-21T12:31:09.115Z,98371.09
2018-06-21T12:33:22.897Z,98368.17
2018-06-21T12:35:36.332Z,98360.89
2018-06-21T12:37:49.752Z,98365.39
2018-06-21T12:40:02.292Z,98360.71
2018-06-21T12:42:14.676Z,98363.59
2018-06-21T12:44:27.087Z,98354.92
2018-06-21T12:46:39.545Z,98347.27
2018-06-21T12:48:52.003Z,98359.95
2018-06-21T12:51:04.415Z,98353.13
2018-06-21T12:53:16.846Z,98352.95
2018-06-21T12:55:29.268Z,98363.25
2018-06-21T12:57:42.974Z,98364.53
2018-06-21T12:59:55.960Z,98360.59
2018-06-21T13:02:08.713Z,98362.45
2018-06-21T13:04:21.180Z,98359.56
2018-06-21T13:06:33.571Z,98364.81
2018-06-21T13:08:57.484Z,98364.98
2018-06-21T13:12:27.233Z,98362.19
2018-06-21T13:14:39.979Z,98366.14
2018-06-21T13:16:52.367Z,98375.09
2018-06-21T13:19:04.941Z,98372.48
2018-06-21T13:21:18.423Z,98379.88
2018-06-21T13:23:30.819Z,98363.00
2018-06-21T13:25:44.578Z,98369.93
2018-06-21T13:27:57.727Z,98362.73
2018-06-21T13:30:10.327Z,98368.59
2018-06-21T13:32:23.445Z,98370.96
2018-06-21T13:34:36.329Z,98364.78
2018-06-21T13:36:48.924Z,98356.92
2018-06-21T13:39:01.263Z,98347.76
2018-06-21T13:41:13.683Z,98352.13
2018-06-21T13:43:29.686Z,98355.65
2018-06-21T13:45:43.020Z,98354.00
2018-06-21T13:47:55.529Z,98361.42
2018-06-21T13:50:08.576Z,98362.66
2018-06-21T13:52:22.171Z,98367.08
2018-06-21T13:54:34.736Z,98353.45
2018-06-21T13:56:47.727Z,98350.28
2018-06-21T13:59:00.249Z,98373.67
2018-06-21T14:01:12.711Z,98380.27
2018-06-21T14:03:25.043Z,98384.33
2018-06-21T14:05:37.518Z,98383.91
2018-06-21T14:07:51.665Z,98399.17
2018-06-21T14:10:04.031Z,98396.48
2018-06-21T14:12:16.559Z,98402.63
2018-06-21T14:14:29.024Z,98400.26
2018-06-21T14:16:41.438Z,98399.70
2018-06-21T14:18:53.879Z,98403.05
2018-06-21T14:21:06.635Z,98411.94
2018-06-21T14:23:19.018Z,98417.48
2018-06-21T14:25:31.580Z,98418.02
2018-06-21T14:27:44.077Z,98425.74
2018-06-21T14:29:56.474Z,98430.66
2018-06-21T14:32:08.866Z,98430.54
2018-06-21T14:34:21.239Z,98430.04
2018-06-21T14:36:33.954Z,98441.71
2018-06-21T14:38:47.219Z,98445.28
2018-06-21T14:40:59.683Z,98455.05
2018-06-21T14:43:12.068Z,98457.20
2018-06-21T14:45:24.468Z,98458.31
2018-06-21T14:47:36.893Z,98459.06
2018-06-21T14:49:49.346Z,98456.09
2018-06-21T14:52:01.766Z,98462.11
2018-06-21T14:54:14.240Z,98467.63
2018-06-21T14:56:26.626Z,98472.78
2018-06-21T14:58:39.038Z,98466.24
2018-06-21T15:00:51.666Z,98463.46
2018-06-21T15:03:04.831Z,98466.16
2018-06-21T15:05:17.257Z,98460.36
2018-06-21T15:07:29.634Z,98465.36
2018-06-21T15:09:41.985Z,98457.70
2018-06-21T15:11:54.352Z,98458.34
2018-06-21T15:14:06.770Z,98461.50
2018-06-21T15:16:20.859Z,98462.70
2018-06-21T15:18:33.246Z,98457.01
2018-06-21T15:20:45.576Z,98458.66
2018-06-21T15:22:58.073Z,98452.98
2018-06-21T15:25:10.429Z,98455.61
2018-06-21T15:27:22.786Z,98455.80
2018-06-21T15:29:35.238Z,98453.50
2018-06-21T15:31:48.602Z,98461.34
2018-06-21T15:34:01.997Z,98463.37
2018-06-21T15:36:14.382Z,98461.70
2018-06-21T15:38:26.787Z,98464.38
2018-06-21T15:40:40.136Z,98458.14
2018-06-21T15:42:52.468Z,98463.27
2018-06-21T15:45:04.918Z,98458.94
2018-06-21T15:47:17.273Z,98461.78
2018-06-21T15:49:29.706Z,98464.67
2018-06-21T15:51:42.597Z,98465.37
2018-06-21T15:53:55.064Z,98463.23
2018-06-21T15:56:07.459Z,98466.38
2018-06-21T15:58:19.991Z,98463.06
2018-06-21T16:00:32.493Z,98472.88
2018-06-21T16:02:44.943Z,98476.70
2018-06-21T16:04:58.219Z,98472.61
2018-06-21T16:07:11.310Z,98470.31
2018-06-21T16:09:23.719Z,98470.65
2018-06-21T16:11:36.126Z,98473.81
2018-06-21T16:13:48.445Z,98468.34
2018-06-21T16:16:00.904Z,98465.67
2018-06-21T16:18:13.306Z,98469.97
2018-06-21T16:20:25.824Z,98468.16
2018-06-21T16:22:38.354Z,98466.53
2018-06-21T16:24:50.736Z,98461.37
2018-06-21T16:27:03.114Z,98460.25
2018-06-21T16:29:15.505Z,98455.31
2018-06-21T16:31:28.035Z,98463.08
2018-06-21T16:33:40.559Z,98464.37
2018-06-21T16:35:52.935Z,98465.86
2018-06-21T16:38:06.257Z,98459.56
2018-06-21T16:40:18.709Z,98462.42
2018-06-21T16:42:31.303Z,98471.38
2018-06-21T16:44:43.785Z,98476.05
2018-06-21T16:46:56.151Z,98476.57
2018-06-21T16:49:08.642Z,98480.22
2018-06-21T16:51:20.999Z,98467.46
2018-06-21T16:53:33.461Z,98470.78
2018-06-21T16:55:46.057Z,98469.63
2018-06-21T16:57:58.436Z,98474.92
2018-06-21T17:00:10.894Z,98484.87
2018-06-21T17:02:24.205Z,98487.85
2018-06-21T17:04:36.740Z,98487.20
2018-06-21T17:06:49.157Z,98481.20
2018-06-21T17:09:01.467Z,98484.68
2018-06-21T17:11:13.913Z,98491.95
2018-06-21T17:13:27.331Z,98491.31
2018-06-21T17:15:39.846Z,98496.61
2018-06-21T17:17:52.271Z,98495.79
2018-06-21T17:20:05.020Z,98504.39
2018-06-21T17:22:17.612Z,98498.27
2018-06-21T17:24:30.125Z,98500.27
2018-06-21T17:26:42.578Z,98496.28
2018-06-21T17:28:54.959Z,98495.28
2018-06-21T17:31:07.363Z,98495.95
2018-06-21T17:33:19.743Z,98500.63
2018-06-21T17:35:32.122Z,98503.42
2018-06-21T17:37:44.478Z,98507.41
2018-06-21T17:39:57.956Z,98510.05
2018-06-21T17:42:10.367Z,98512.85
2018-06-21T17:44:22.719Z,98510.22
2018-06-21T17:46:35.431Z,98514.20
2018-06-21T17:48:48.261Z,98520.95
2018-06-21T17:51:00.690Z,98524.94
2018-06-21T17:53:13.344Z,98521.46
2018-06-21T17:55:25.700Z,98534.36
2018-06-21T17:57:38.170Z,98540.16
2018-06-21T17:59:50.715Z,98531.84
2018-06-21T18:02:03.140Z,98541.25
2018-06-21T18:04:15.588Z,98544.22
2018-06-21T18:06:28.061Z,98547.53
2018-06-21T18:08:40.598Z,98560.89
2018-06-21T18:10:53.055Z,98566.52
2018-06-21T18:13:05.670Z,98561.34
2018-06-21T18:15:18.113Z,98573.49
2018-06-21T18:17:30.546Z,98573.64
2018-06-21T18:19:43.128Z,98570.64
2018-06-21T18:21:55.608Z,98576.53
2018-06-21T18:24:07.997Z,98581.81
2018-06-21T18:26:20.414Z,98587.31
2018-06-21T18:28:32.851Z,98593.55
2018-06-21T18:30:45.417Z,98608.74
2018-06-21T18:32:57.814Z,98603.14
2018-06-21T18:35:10.947Z,98608.86
2018-06-21T18:37:23.790Z,98614.30
2018-06-21T18:39:36.264Z,98607.96
2018-06-21T18:41:48.713Z,98613.88
2018-06-21T18:44:01.087Z,98625.16
2018-06-21T18:46:13.703Z,98624.13
2018-06-21T18:48:26.178Z,98631.71
2018-06-21T18:50:38.596Z,98627.38
2018-06-21T18:52:51.225Z,98638.45
2018-06-21T18:55:03.646Z,98638.95
2018-06-21T18:57:16.154Z,98644.70
2018-06-21T18:59:28.556Z,98648.15
2018-06-21T19:01:40.998Z,98652.74
2018-06-21T19:03:53.438Z,98656.91
2018-06-21T19:06:10.363Z,98663.84
2018-06-21T19:08:28.254Z,98666.49
2018-06-21T19:10:46.868Z,98667.31
2018-06-21T19:12:59.200Z,98677.30
2018-06-21T19:15:12.224Z,98679.72
2018-06-21T19:17:24.700Z,98682.86
2018-06-21T19:19:37.103Z,98690.13
2018-06-21T19:21:49.479Z,98692.77
2018-06-21T19:24:01.930Z,98694.72
2018-06-21T19:26:14.360Z,98710.06
2018-06-21T19:28:26.792Z,98715.80
2018-06-21T19:30:39.199Z,98714.54
2018-06-21T19:32:51.589Z,98724.67
2018-06-21T19:35:04.096Z,98731.53
2018-06-21T19:37:16.497Z,98739.75
2018-06-21T19:39:28.897Z,98746.81
2018-06-21T19:41:41.570Z,98755.27
2018-06-21T19:43:53.939Z,98757.33
2018-06-21T19:46:06.392Z,98768.23
2018-06-21T19:48:18.819Z,98770.61
2018-06-21T19:50:31.228Z,98774.53
2018-06-21T19:52:43.782Z,98770.84
2018-06-21T19:54:56.134Z,98774.31
2018-06-21T19:57:08.607Z,98782.45
2018-06-21T19:59:21.006Z,98787.46
2018-06-21T20:01:33.471Z,98789.98
2018-06-21T20:03:46.132Z,98791.30
2018-06-21T20:05:58.630Z,98802.56
2018-06-21T20:08:11.076Z,98810.35
2018-06-21T20:10:23.478Z,98812.66
2018-06-21T20:12:36.051Z,98819.04
2018-06-21T20:14:48.425Z,98823.70
2018-06-21T20:17:00.870Z,98830.45
2018-06-21T20:19:15.873Z,98820.44
2018-06-21T20:21:28.285Z,98838.07
2018-06-21T20:23:42.529Z,98843.88
2018-06-21T20:25:54.938Z,98852.33
2018-06-21T20:28:07.424Z,98857.41
2018-06-21T20:30:19.962Z,98861.48
2018-06-21T20:32:32.330Z,98861.62
2018-06-21T20:34:44.740Z,98865.36
2018-06-21T20:36:57.144Z,98865.14
2018-06-21T20:39:10.533Z,98865.13
2018-06-21T20:41:23.034Z,98867.88
2018-06-21T20:43:35.395Z,98870.30
2018-06-21T20:45:47.790Z,98876.88
2018-06-21T20:48:00.214Z,98877.86
2018-06-21T20:50:12.688Z,98872.81
2018-06-21T20:52:27.874Z,98881.81
2018-06-21T20:54:40.302Z,98886.09
2018-06-21T20:56:52.749Z,98892.48
2018-06-21T20:59:05.140Z,98890.94
2018-06-21T21:01:17.561Z,98895.11
2018-06-21T21:03:30.031Z,98893.59
2018-06-21T21:05:42.358Z,98901.84
2018-06-21T21:07:54.724Z,98913.69
2018-06-21T21:10:08.383Z,98914.33
2018-06-21T21:12:20.720Z,98917.59
2018-06-21T21:14:33.226Z,98922.14
2018-06-21T21:16:45.586Z,98925.50
2018-06-21T21:18:58.067Z,98933.53
2018-06-21T21:21:10.485Z,98932.08
2018-06-21T21:23:22.895Z,98934.70
2018-06-21T21:25:35.236Z,98940.12
2018-06-21T21:27:47.578Z,98942.30
2018-06-21T21:30:00.117Z,98943.14
2018-06-21T21:32:12.544Z,98951.17
2018-06-21T21:34:24.869Z,98956.77
2018-06-21T21:36:37.302Z,98955.49
2018-06-21T21:38:49.782Z,98954.28
2018-06-21T21:41:02.080Z,98956.91
2018-06-21T21:43:14.399Z,98952.86
2018-06-21T21:45:26.693Z,98958.98
2018-06-21T21:47:39.063Z,98968.04
2018-06-21T21:49:51.555Z,98970.07
2018-06-21T21:52:03.930Z,98965.91
2018-06-21T21:54:16.379Z,98971.52
2018-06-21T21:56:28.689Z,98982.16
2018-06-21T21:58:40.995Z,98982.27
2018-06-21T22:00:54.553Z,98977.86
2018-06-21T22:03:06.906Z,98982.66
2018-06-21T22:05:19.247Z,98985.05
2018-06-21T22:07:31.556Z,98990.17
2018-06-21T22:09:44.455Z,99001.38
2018-06-21T22:11:56.782Z,99005.22
2018-06-21T22:14:09.279Z,99010.07
2018-06-21T22:16:21.798Z,99005.41
2018-06-21T22:18:34.245Z,99009.41
2018-06-21T22:20:46.691Z,99011.08
2018-06-21T22:22:59.447Z,99009.26
2018-06-21T22:25:11.841Z,99016.75
2018-06-21T22:27:24.198Z,99017.67
2018-06-21T22:29:36.528Z,99013.99
2018-06-21T22:31:49.089Z,99017.27
2018-06-21T22:34:01.455Z,99019.92
2018-06-21T22:36:13.867Z,99028.12
2018-06-21T22:38:26.212Z,99027.95
2018-06-21T22:40:38.559Z,99026.16
2018-06-21T22:42:50.886Z,99024.05
2018-06-21T22:45:03.371Z,99021.30
2018-06-21T22:47:15.798Z,99027.48
2018-06-21T22:49:28.245Z,99028.45
2018-06-21T22:51:40.686Z,99032.33
2018-06-21T22:53:53.053Z,99037.27
2018-06-21T22:56:05.550Z,99034.23
2018-06-21T22:58:18.192Z,99033.54
2018-06-21T23:00:30.501Z,99032.52
2018-06-21T23:02:42.875Z,99033.77
2018-06-21T23:04:55.198Z,99036.28
2018-06-21T23:07:07.566Z,99030.34
2018-06-21T23:09:20.024Z,99034.94
2018-06-21T23:11:32.342Z,99035.94
2018-06-21T23:13:44.670Z,99035.70
2018-06-21T23:15:57.050Z,99046.09
2018-06-21T23:18:09.407Z,99046.29
2018-06-21T23:20:21.751Z,99053.73
2018-06-21T23:22:34.141Z,99047.58
2018-06-21T23:24:46.483Z,99054.14
2018-06-21T23:26:58.854Z,99057.34
2018-06-21T23:29:11.256Z,99058.84
2018-06-21T23:31:23.587Z,99056.59
2018-06-21T23:33:35.882Z,99056.14
2018-06-21T23:35:48.205Z,99056.80
2018-06-21T23:38:00.706Z,99057.19
2018-06-21T23:40:13.078Z,99057.95
2018-06-21T23:42:25.460Z,99061.60
2018-06-21T23:44:37.839Z,99057.98
2018-06-21T23:46:50.249Z,99060.89
2018-06-21T23:49:02.549Z,99071.25
2018-06-21T23:51:14.950Z,99071.91
2018-06-21T23:53:27.285Z,99079.67
2018-06-21T23:55:39.646Z,99074.24
2018-06-21T23:57:51.913Z,99074.55
